Nashville, Tennessee
Traffic Map
Current Weather Conditions
Nashville, Tennessee
Scattered Clouds
Scattered Clouds
83°
Feels Like: 86°
Wind Chill: 83° Ceiling: Unl
Heat Index: 86° Visibility: 10mi
Dew Point: 69° Wind: 3mph
Humidity: 63% Direction: 110° (ESE)
Pressure: 30.05in Gusts: 0mph
Raw Report DataKBNA 280053Z 11003KT 10SM FEW050 SCT250 28/21 A3005 RMK AO2 SLP166 T02830206
Traffic Incident Summary
Active as of:
Severity:
Category:
InformationThere was an issue retrieving the traffic information for this location. Please try a different location or try again shortly.
Advertisements
Track Severe Weather on mobile